KEWRBGKK

Guest
Details From KEWR - Newark Liberty Intl
To BGKK - Kulusuk
Flight Number -
Tags Generated
Created
Modified
Stats Distance 1,948 nm / 3,608 km
Max Altitude 0 ft / 0 m
Waypoints 4
Social Downloads 1
Likes 0
Share VATSIM

Download

Looking for another format? Having issues loading an existing format? Contact us
Advertisement - Login to hide

Notes

Generated

Route

KEWR ULAKY LOKVI BGKK

ID Type Via Altitude Latitude Longitude Leg Dist Tot Dist Heading (true) Name
O KEWR APT - 0 ft / 0 m 40.70281˚ -74.18071˚ - 0 nm - -
ULAKY FIX - 0 ft / 0 m 43.67622˚ -71.96897˚ 203 nm 203 nm 28° / 30° -
LOKVI FIX - 0 ft / 0 m 50.24286˚ -66.11310˚ 461 nm 665 nm 29° / 34° -
O BGKK APT - 0 ft / 0 m 65.57304˚ -37.13664˚ 1282 nm 1948 nm 33° / 58° -

Altitude Profile

Advertisement - Login to hide

Weather


0- 5 10 15 20 25 30 35+ Temperature / ° C

Clouds and Precipitation
Forecast for 2017-12-13 00:00 UTC. Updated 36 minutes ago

Ground ~20,000 ft ~40,000 ft Winds

KEWR

Details ICAO KEWR (EWR)
Name Newark Liberty Intl
Region United States
Timezone America/New_York (UTC-5.0)
Stats Elevation 18 ft / 5 m (AMSL)
Location 40.693633° -74.168565°
Runways 3
Magnetic Variation 12.811° W

METAR

KEWR 122251Z 28011G19KT 10SM SCT025 BKN048 OVC075 05/00 A2945 RMK AO2 RAE31 SLP973 P0000 T00500000

Decode

TAF

TAF KEWR 122340Z 1300/1406 28015G24KT P6SM VCSH SCT025 BKN050 BKN100 FM130200 30019G29KT P6SM VCSH FEW030 BKN050 FM130700 28021G32KT P6SM SCT050 BKN100 FM131300 28022G35KT P6SM BKN050 FM132100 27021G30KT P6SM SCT050 BKN200 FM140100 26012G22KT P6SM BKN050 BKN100

Decode

Departure Runways

ID Width Length Bearing (true) Bearing (mag) Surface Threshold Offset Overrun Length
04L 150 ft / 46 m 11,009 ft / 3,356 m 25.73° 38.54° Asphalt 2,543 ft / 775 m 600 ft / 183 m
04R 150 ft / 46 m 10,008 ft / 3,051 m 25.73° 38.54° Asphalt 1,191 ft / 363 m 299 ft / 91 m
11 150 ft / 46 m 6,785 ft / 2,068 m 95.01° 107.82° Asphalt 0 ft / 0 m 299 ft / 91 m
22L 150 ft / 46 m 10,008 ft / 3,051 m 205.74° 218.55° Asphalt 1,795 ft / 547 m 801 ft / 244 m
22R 150 ft / 46 m 11,009 ft / 3,356 m 205.74° 218.55° Asphalt 1,424 ft / 434 m 699 ft / 213 m
29 150 ft / 46 m 6,785 ft / 2,068 m 275.02° 287.83° Asphalt 299 ft / 91 m 98 ft / 30 m

BGKK

Details ICAO BGKK
Name Kulusuk
Region Greenland
Timezone America/Godthab (UTC-3.0)
Stats Elevation 114 ft / 35 m (AMSL)
Location 65.573608° -37.123608°
Runways 1
Magnetic Variation 22.320° W

METAR

BGKK 122250Z AUTO 07014KT 020V100 9999NDV FEW064/// SCT190/// 02/M08 Q0981

Decode

TAF

Not found

Destination Runways

ID Width Length Bearing (true) Bearing (mag) Surface Threshold Offset Overrun Length
11 98 ft / 30 m 3,956 ft / 1,206 m 83.99° 106.31° Gravel 0 ft / 0 m 0 ft / 0 m
29 98 ft / 30 m 3,956 ft / 1,206 m 264.01° 286.33° Gravel 0 ft / 0 m 0 ft / 0 m